Time;durP1;ratioP1;P1;durP2;ratioP2;P2;SDS_P1;SDS_P2;PMS_P1;PMS_P2;Temp;Humidity;BMP_temperature;BMP_pressure;BME280_temperature;BME280_humidity;BME280_pressure;Samples;Min_cycle;Max_cycle;Signal;HPM_P1;HPM_P2
2022/12/07 00:01:11;;;;;;;7.50;4.63;;;5.10;94.20;;;;;;5070530;28;20035;-73
2022/12/07 00:03:39;;;;;;;6.72;4.45;;;5.00;94.10;;;;;;5073313;28;20032;-73
2022/12/07 00:06:06;;;;;;;7.38;4.07;;;4.90;94.10;;;;;;5074065;28;20138;-72
2022/12/07 00:08:33;;;;;;;6.32;4.38;;;4.90;94.20;;;;;;5077439;28;20398;-72
2022/12/07 00:11:07;;;;;;;6.72;4.20;;;4.80;94.30;;;;;;5071125;28;20115;-77
2022/12/07 00:13:35;;;;;;;5.40;3.67;;;4.80;94.20;;;;;;5073054;28;20031;-74
2022/12/07 00:16:06;;;;;;;7.82;4.45;;;4.70;94.20;;;;;;5069111;28;20639;-73
2022/12/07 00:18:33;;;;;;;5.07;3.63;;;4.70;94.30;;;;;;5067997;28;20021;-73
2022/12/07 00:21:10;;;;;;;6.55;4.45;;;4.70;94.20;;;;;;5071608;28;20032;-72
2022/12/07 00:23:36;;;;;;;5.80;4.18;;;4.60;94.30;;;;;;5077011;28;20505;-72
2022/12/07 00:26:20;;;;;;;6.03;3.38;;;4.60;94.50;;;;;;5073051;28;20496;-72
2022/12/07 00:28:50;;;;;;;5.40;3.50;;;4.60;94.60;;;;;;5076903;28;20052;-72
2022/12/07 00:31:18;;;;;;;5.88;3.90;;;4.60;94.60;;;;;;5071760;28;20036;-72
2022/12/07 00:33:44;;;;;;;5.72;3.65;;;4.60;94.60;;;;;;5071813;28;20024;-73
2022/12/07 00:36:12;;;;;;;5.68;3.28;;;4.70;94.60;;;;;;5066258;28;20044;-72
2022/12/07 00:38:39;;;;;;;4.10;2.90;;;4.60;94.70;;;;;;5065864;28;20086;-72
2022/12/07 00:41:10;;;;;;;5.28;3.40;;;4.70;94.80;;;;;;5072907;28;20484;-71
2022/12/07 00:43:36;;;;;;;5.57;3.40;;;4.70;94.80;;;;;;5067992;28;20132;-72
2022/12/07 00:46:01;;;;;;;5.35;3.72;;;4.70;94.80;;;;;;5074249;28;20147;-72
2022/12/07 00:48:27;;;;;;;5.85;3.63;;;4.70;94.60;;;;;;5071095;28;20791;-72
2022/12/07 00:50:53;;;;;;;5.97;3.13;;;4.70;94.70;;;;;;5069877;28;20111;-73
2022/12/07 00:53:19;;;;;;;4.80;3.50;;;4.70;94.70;;;;;;5070365;28;20079;-72
2022/12/07 00:55:46;;;;;;;6.15;4.25;;;4.80;94.80;;;;;;5069296;28;20674;-73
2022/12/07 00:58:12;;;;;;;5.07;3.53;;;4.70;94.70;;;;;;5068860;28;20786;-72
2022/12/07 01:00:39;;;;;;;5.20;3.40;;;4.70;94.50;;;;;;5068612;28;20033;-72
2022/12/07 01:03:07;;;;;;;7.82;4.15;;;4.70;94.30;;;;;;5077489;28;20070;-73
2022/12/07 01:05:33;;;;;;;5.90;3.80;;;4.70;94.20;;;;;;5074114;28;20036;-72
2022/12/07 01:07:59;;;;;;;4.90;3.60;;;4.70;94.00;;;;;;5070878;28;20420;-71
2022/12/07 01:10:25;;;;;;;4.60;3.22;;;4.60;93.80;;;;;;5071576;28;20036;-72
2022/12/07 01:12:51;;;;;;;4.35;2.90;;;4.60;94.00;;;;;;5065691;28;20483;-73
2022/12/07 01:15:17;;;;;;;4.82;2.83;;;4.50;94.10;;;;;;5064287;28;20025;-72
2022/12/07 01:17:43;;;;;;;5.88;3.35;;;4.50;94.30;;;;;;5070583;28;20101;-74
2022/12/07 01:20:09;;;;;;;5.80;3.60;;;4.40;94.30;;;;;;5072586;28;20395;-75
2022/12/07 01:22:40;;;;;;;5.13;3.15;;;4.40;94.30;;;;;;5078827;28;20039;-73
2022/12/07 01:25:07;;;;;;;4.70;3.53;;;4.40;94.30;;;;;;5067409;28;20044;-72
2022/12/07 01:27:38;;;;;;;5.90;3.15;;;4.30;94.30;;;;;;5070731;28;20039;-73
2022/12/07 01:30:06;;;;;;;4.60;2.90;;;4.30;94.40;;;;;;5070941;28;20059;-75
2022/12/07 01:32:32;;;;;;;7.35;2.78;;;4.20;94.50;;;;;;5072267;28;20039;-74
2022/12/07 01:34:58;;;;;;;8.27;3.42;;;4.20;94.30;;;;;;5063195;28;20134;-73
2022/12/07 01:37:24;;;;;;;5.25;3.25;;;4.10;94.30;;;;;;5072908;28;20067;-73
2022/12/07 01:39:51;;;;;;;5.20;2.92;;;4.10;94.50;;;;;;5068106;28;20141;-73
2022/12/07 01:42:18;;;;;;;3.63;2.47;;;4.00;94.70;;;;;;5077282;28;20058;-73
2022/12/07 01:45:17;;;;;;;5.90;2.95;;;4.00;94.90;;;;;;5068073;28;20032;-73
2022/12/07 01:47:56;;;;;;;5.35;3.13;;;4.10;95.00;;;;;;5069894;28;20024;-73
2022/12/07 01:50:26;;;;;;;5.07;2.95;;;4.10;94.70;;;;;;5068709;28;20097;-73
2022/12/07 01:52:55;;;;;;;4.18;3.00;;;4.10;94.60;;;;;;5062792;28;20457;-73
2022/12/07 01:55:22;;;;;;;3.55;2.75;;;4.00;94.60;;;;;;5073972;28;20065;-73
2022/12/07 01:57:50;;;;;;;4.80;3.13;;;3.90;94.70;;;;;;5070772;28;20047;-73
2022/12/07 02:00:17;;;;;;;4.63;2.72;;;3.80;95.10;;;;;;5075471;28;20032;-73
2022/12/07 02:02:59;;;;;;;6.13;3.58;;;3.80;95.20;;;;;;5070010;28;20032;-73
2022/12/07 02:05:27;;;;;;;5.75;3.65;;;3.80;95.40;;;;;;5071753;28;20060;-73
2022/12/07 02:07:56;;;;;;;5.97;3.03;;;3.90;95.50;;;;;;5069769;28;20020;-73
2022/12/07 02:10:24;;;;;;;5.18;3.10;;;3.90;95.10;;;;;;5066513;28;20112;-72
2022/12/07 02:12:58;;;;;;;5.95;3.60;;;3.90;95.20;;;;;;5067832;28;20028;-73
2022/12/07 02:15:35;;;;;;;6.05;3.40;;;3.90;95.20;;;;;;5073552;28;20585;-73
2022/12/07 02:18:24;;;;;;;5.45;3.67;;;3.90;95.30;;;;;;5070816;28;20373;-73
2022/12/07 02:21:13;;;;;;;7.97;3.70;;;3.90;95.20;;;;;;5050363;28;20127;-73
2022/12/07 02:23:56;;;;;;;5.03;3.55;;;3.90;95.30;;;;;;5061070;28;20046;-73
2022/12/07 02:26:28;;;;;;;8.23;4.03;;;4.00;95.20;;;;;;5071808;28;20036;-73
2022/12/07 02:29:24;;;;;;;9.15;4.38;;;3.90;95.30;;;;;;5066208;28;20033;-73
2022/12/07 02:32:04;;;;;;;13.18;5.30;;;3.80;95.80;;;;;;5062357;28;20032;-73
2022/12/07 02:34:49;;;;;;;13.35;5.45;;;3.80;95.60;;;;;;5072742;28;20035;-73
2022/12/07 02:37:53;;;;;;;10.18;4.55;;;3.80;95.80;;;;;;5072036;28;20050;-73
2022/12/07 02:40:38;;;;;;;8.18;4.85;;;3.80;95.90;;;;;;5046762;28;20051;-73
2022/12/07 02:43:44;;;;;;;9.18;5.70;;;3.80;96.10;;;;;;5068971;28;20028;-73
2022/12/07 02:46:32;;;;;;;10.18;5.72;;;3.80;96.10;;;;;;5070556;28;20128;-73
2022/12/07 02:48:59;;;;;;;10.80;5.75;;;3.80;95.90;;;;;;5063855;28;20172;-73
2022/12/07 02:51:25;;;;;;;10.32;5.25;;;3.70;96.20;;;;;;5065411;28;20032;-73
2022/12/07 02:53:51;;;;;;;10.10;5.50;;;3.70;96.40;;;;;;5071133;28;20032;-73
2022/12/07 02:56:43;;;;;;;12.70;5.93;;;3.70;96.40;;;;;;5074133;28;20107;-73
2022/12/07 02:59:24;;;;;;;13.90;6.18;;;3.70;96.40;;;;;;5067486;28;20299;-73
2022/12/07 03:02:02;;;;;;;10.57;5.95;;;3.70;96.50;;;;;;5074441;28;20034;-73
2022/12/07 03:04:53;;;;;;;11.73;6.32;;;3.70;96.50;;;;;;5077754;28;20035;-73
2022/12/07 03:07:30;;;;;;;12.65;6.78;;;3.70;96.60;;;;;;5070265;28;20032;-73
2022/12/07 03:10:11;;;;;;;11.10;5.05;;;3.60;96.80;;;;;;5066150;28;20036;-73
2022/12/07 03:12:45;;;;;;;10.93;5.82;;;3.60;96.90;;;;;;5074309;28;20071;-73
2022/12/07 03:15:44;;;;;;;13.82;6.82;;;3.60;96.90;;;;;;5078621;28;20109;-73
2022/12/07 03:18:12;;;;;;;15.52;6.82;;;3.60;97.10;;;;;;5071443;28;20029;-73
2022/12/07 03:20:41;;;;;;;14.23;7.15;;;3.60;97.10;;;;;;5072320;28;20134;-73
2022/12/07 03:23:10;;;;;;;13.77;6.90;;;3.70;97.10;;;;;;5073528;28;20048;-73
2022/12/07 03:25:45;;;;;;;14.60;6.95;;;3.70;96.90;;;;;;5069766;28;20035;-73
2022/12/07 03:28:15;;;;;;;16.90;7.78;;;3.80;96.90;;;;;;5066635;28;20032;-73
2022/12/07 03:30:47;;;;;;;13.85;7.03;;;3.80;96.90;;;;;;5076729;28;20723;-73
2022/12/07 03:33:21;;;;;;;13.38;6.72;;;3.80;97.00;;;;;;5074184;28;20412;-71
2022/12/07 03:35:59;;;;;;;14.93;8.02;;;3.80;97.10;;;;;;5078561;28;20122;-72
2022/12/07 03:38:36;;;;;;;16.42;7.93;;;3.80;97.10;;;;;;5075725;28;20044;-72
2022/12/07 03:41:28;;;;;;;17.02;7.88;;;3.90;97.00;;;;;;5067955;28;20119;-72
2022/12/07 03:43:55;;;;;;;20.05;8.63;;;3.90;97.10;;;;;;5071934;28;20066;-73
2022/12/07 03:46:46;;;;;;;16.52;8.10;;;3.80;97.30;;;;;;5068912;28;20055;-72
2022/12/07 03:49:25;;;;;;;20.55;8.65;;;3.70;97.90;;;;;;5074204;28;20046;-73
2022/12/07 03:52:10;;;;;;;17.92;8.88;;;3.70;97.90;;;;;;5070708;28;20777;-73
2022/12/07 03:54:46;;;;;;;21.88;9.48;;;3.80;97.70;;;;;;5079390;28;20076;-73
2022/12/07 03:57:13;;;;;;;20.38;9.40;;;3.70;98.00;;;;;;5070147;28;20031;-73
2022/12/07 03:59:40;;;;;;;22.60;10.38;;;3.70;98.30;;;;;;5073967;28;20032;-73
2022/12/07 04:02:07;;;;;;;21.02;9.77;;;3.70;98.20;;;;;;5071788;28;20036;-73
2022/12/07 04:04:34;;;;;;;22.45;10.52;;;3.80;98.10;;;;;;5067060;28;20024;-73
2022/12/07 04:07:00;;;;;;;25.63;10.77;;;3.80;98.10;;;;;;5070311;28;20024;-74
2022/12/07 04:09:27;;;;;;;20.13;10.65;;;3.90;98.30;;;;;;5073633;28;20071;-73
2022/12/07 04:11:53;;;;;;;24.55;11.77;;;3.90;98.30;;;;;;5073572;28;20036;-74
2022/12/07 04:14:18;;;;;;;23.40;11.13;;;3.80;98.50;;;;;;5073074;28;20648;-73
2022/12/07 04:16:46;;;;;;;25.13;11.25;;;3.90;98.60;;;;;;5070268;28;20471;-74
2022/12/07 04:19:12;;;;;;;30.92;12.18;;;3.90;98.60;;;;;;5073693;28;20042;-73
2022/12/07 04:21:38;;;;;;;25.90;12.15;;;3.80;98.70;;;;;;5071804;28;20030;-74
2022/12/07 04:24:04;;;;;;;27.90;11.68;;;3.80;99.00;;;;;;5065381;28;20036;-74
2022/12/07 04:26:30;;;;;;;24.40;11.73;;;3.90;99.20;;;;;;5073962;28;20032;-74
2022/12/07 04:28:56;;;;;;;25.02;11.95;;;4.00;99.00;;;;;;5071178;28;20047;-75
2022/12/07 04:31:22;;;;;;;27.27;12.25;;;4.00;98.80;;;;;;5076128;28;20498;-74
2022/12/07 04:33:48;;;;;;;26.13;12.10;;;4.00;98.80;;;;;;5073775;28;20028;-74
2022/12/07 04:36:15;;;;;;;27.85;12.02;;;4.00;99.00;;;;;;5068981;28;20043;-74
2022/12/07 04:38:42;;;;;;;26.20;11.93;;;4.10;98.90;;;;;;5053793;28;20027;-74
2022/12/07 04:41:08;;;;;;;24.55;12.15;;;4.20;98.70;;;;;;5067315;28;20537;-73
2022/12/07 04:43:35;;;;;;;26.80;11.38;;;4.40;98.50;;;;;;5064493;28;20036;-74
2022/12/07 04:46:01;;;;;;;26.98;12.55;;;4.50;98.10;;;;;;5072811;28;20036;-72
2022/12/07 04:48:28;;;;;;;22.85;10.75;;;4.40;97.90;;;;;;5070661;28;20032;-75
2022/12/07 04:50:53;;;;;;;25.38;11.60;;;4.30;98.40;;;;;;5073081;28;20028;-71
2022/12/07 04:53:19;;;;;;;27.50;12.13;;;4.10;98.50;;;;;;5069415;28;20395;-72
2022/12/07 04:55:45;;;;;;;25.48;12.35;;;4.00;99.00;;;;;;5070810;28;20502;-71
2022/12/07 04:58:12;;;;;;;25.13;11.80;;;4.10;99.00;;;;;;5073155;28;20424;-73
2022/12/07 05:00:40;;;;;;;30.15;13.50;;;4.10;99.10;;;;;;5070160;28;20152;-73
2022/12/07 05:03:07;;;;;;;29.58;12.63;;;4.10;98.80;;;;;;5062328;28;20048;-72
2022/12/07 05:05:33;;;;;;;27.90;12.60;;;4.10;99.30;;;;;;5073752;28;20760;-73
2022/12/07 05:07:58;;;;;;;31.60;12.50;;;4.00;99.60;;;;;;5070888;28;20024;-73
2022/12/07 05:10:24;;;;;;;29.98;12.90;;;4.00;99.80;;;;;;5073343;28;20032;-71
2022/12/07 05:12:50;;;;;;;33.13;14.05;;;4.10;99.80;;;;;;5067692;28;20059;-72
2022/12/07 05:15:16;;;;;;;33.90;14.40;;;4.20;99.70;;;;;;5069898;28;20488;-72
2022/12/07 05:17:42;;;;;;;31.33;13.85;;;4.20;99.70;;;;;;5069555;28;20051;-72
2022/12/07 05:20:08;;;;;;;30.45;12.93;;;4.40;99.60;;;;;;5062163;28;20497;-72
2022/12/07 05:22:34;;;;;;;34.38;13.45;;;4.50;99.40;;;;;;5068259;28;20041;-72
2022/12/07 05:25:00;;;;;;;30.42;13.60;;;4.60;99.10;;;;;;5071148;28;20039;-72
2022/12/07 05:27:26;;;;;;;30.83;12.77;;;4.60;99.00;;;;;;5047859;28;20036;-72
2022/12/07 05:29:52;;;;;;;34.83;13.95;;;4.60;99.10;;;;;;5071091;28;20028;-74
2022/12/07 05:32:18;;;;;;;37.72;15.40;;;4.70;98.80;;;;;;5068581;28;20117;-73
2022/12/07 05:34:44;;;;;;;32.38;14.15;;;4.70;99.10;;;;;;5069548;28;20403;-73
2022/12/07 05:37:10;;;;;;;30.10;14.20;;;4.70;99.10;;;;;;5069381;28;20032;-75
2022/12/07 05:39:37;;;;;;;38.72;16.15;;;4.80;98.70;;;;;;5063492;28;20024;-74
2022/12/07 05:42:12;;;;;;;32.20;14.60;;;4.80;98.60;;;;;;5070463;28;20143;-74
2022/12/07 05:44:44;;;;;;;34.00;14.80;;;4.60;99.20;;;;;;5069621;28;20442;-75
2022/12/07 05:47:12;;;;;;;35.70;16.17;;;4.50;99.50;;;;;;5077424;28;20030;-74
2022/12/07 05:49:37;;;;;;;45.88;18.42;;;4.60;99.50;;;;;;5071991;28;20028;-74
2022/12/07 05:52:04;;;;;;;39.10;16.65;;;4.60;99.60;;;;;;5070258;28;20032;-73
2022/12/07 05:54:30;;;;;;;44.03;17.80;;;4.70;99.40;;;;;;5075370;28;20039;-74
2022/12/07 05:56:57;;;;;;;37.78;15.63;;;4.80;99.20;;;;;;5067347;28;20028;-74
2022/12/07 05:59:23;;;;;;;30.45;14.25;;;4.90;99.10;;;;;;5070164;28;20052;-74
2022/12/07 06:01:59;;;;;;;35.33;16.05;;;4.80;99.10;;;;;;5073938;28;20796;-74
2022/12/07 06:04:27;;;;;;;29.27;13.40;;;4.80;98.80;;;;;;5067990;28;20063;-74
2022/12/07 06:06:53;;;;;;;32.92;14.02;;;4.80;99.20;;;;;;5070315;28;20036;-74
2022/12/07 06:09:21;;;;;;;32.17;14.70;;;4.90;99.10;;;;;;5065153;28;20043;-73
2022/12/07 06:14:32;;;;;;;33.63;15.98;;;5.20;98.90;;;;;;5067055;28;20452;-75
2022/12/07 06:17:00;;;;;;;26.88;14.35;;;5.20;98.40;;;;;;5066026;28;20028;-74
2022/12/07 06:19:25;;;;;;;38.95;19.63;;;5.30;98.40;;;;;;5048897;28;20040;-74
2022/12/07 06:21:51;;;;;;;31.33;16.30;;;5.30;98.10;;;;;;5066768;28;20032;-74
2022/12/07 06:24:18;;;;;;;32.15;14.95;;;5.30;98.20;;;;;;5062798;28;20120;-74
2022/12/07 06:26:44;;;;;;;33.53;17.23;;;5.30;98.30;;;;;;5068603;28;20056;-74
2022/12/07 06:29:10;;;;;;;29.48;14.07;;;5.40;98.20;;;;;;5065810;28;20074;-75
2022/12/07 06:31:37;;;;;;;27.33;14.73;;;5.40;98.10;;;;;;5065818;28;20139;-76
2022/12/07 06:34:06;;;;;;;23.45;12.52;;;5.50;98.10;;;;;;5066205;28;20060;-73
2022/12/07 06:36:31;;;;;;;49.05;22.77;;;5.50;98.00;;;;;;5064874;28;20033;-74
2022/12/07 06:38:57;;;;;;;34.50;14.82;;;5.60;97.70;;;;;;5066117;28;20024;-76
2022/12/07 06:41:24;;;;;;;28.80;14.70;;;5.60;97.70;;;;;;5061256;28;20480;-74
2022/12/07 06:43:51;;;;;;;28.58;13.57;;;5.60;97.70;;;;;;5063874;28;20044;-74
2022/12/07 06:46:17;;;;;;;28.42;13.90;;;5.60;97.50;;;;;;5068146;28;20133;-74
2022/12/07 06:49:20;;;;;;;27.30;13.80;;;5.70;97.40;;;;;;5078540;28;20105;-74
2022/12/07 06:51:46;;;;;;;35.70;15.80;;;5.70;97.50;;;;;;5067026;28;20032;-74
2022/12/07 06:54:20;;;;;;;24.75;14.07;;;5.70;97.10;;;;;;5069563;28;20858;-74
2022/12/07 06:56:46;;;;;;;25.80;11.55;;;5.70;97.30;;;;;;5070469;28;20104;-74
2022/12/07 06:59:12;;;;;;;23.15;12.40;;;5.70;97.20;;;;;;5066161;28;20032;-74
2022/12/07 07:01:38;;;;;;;27.98;12.35;;;5.70;97.00;;;;;;5065454;28;20404;-74
2022/12/07 07:04:04;;;;;;;26.67;12.88;;;5.70;97.00;;;;;;5068512;28;20032;-74
2022/12/07 07:06:30;;;;;;;22.90;12.45;;;5.70;97.10;;;;;;5069218;28;20127;-74
2022/12/07 07:08:55;;;;;;;25.88;12.93;;;5.80;97.00;;;;;;5066065;28;20158;-74
2022/12/07 07:11:21;;;;;;;23.52;12.38;;;5.70;97.00;;;;;;5066908;28;20086;-74
2022/12/07 07:13:47;;;;;;;23.33;13.15;;;5.80;97.00;;;;;;5075753;28;20488;-75
2022/12/07 07:16:13;;;;;;;21.90;12.13;;;5.70;96.60;;;;;;5064541;28;20622;-74
2022/12/07 07:18:39;;;;;;;23.42;12.18;;;5.70;96.90;;;;;;5065002;28;20021;-74
2022/12/07 07:21:05;;;;;;;26.15;11.82;;;5.70;96.90;;;;;;5066703;28;20043;-74
2022/12/07 07:23:31;;;;;;;19.13;10.82;;;5.80;96.80;;;;;;5066814;28;20033;-74
2022/12/07 07:25:57;;;;;;;17.70;9.68;;;5.80;96.80;;;;;;5067068;28;20028;-73
2022/12/07 07:28:23;;;;;;;23.10;11.85;;;5.80;96.80;;;;;;5066966;28;20442;-74
2022/12/07 07:30:49;;;;;;;23.77;11.15;;;5.90;96.60;;;;;;5062606;28;20053;-74
2022/12/07 07:33:14;;;;;;;18.25;9.98;;;5.80;96.40;;;;;;5066068;28;20039;-74
2022/12/07 07:35:40;;;;;;;20.17;9.73;;;5.90;96.50;;;;;;5068642;28;20065;-74
2022/12/07 07:38:06;;;;;;;20.52;9.77;;;5.80;96.50;;;;;;5066841;28;20029;-74
2022/12/07 07:40:34;;;;;;;16.20;8.73;;;5.90;96.60;;;;;;5067477;28;20032;-74
2022/12/07 07:43:00;;;;;;;17.30;8.43;;;5.90;96.50;;;;;;5063853;28;20606;-74
2022/12/07 07:45:28;;;;;;;18.13;9.88;;;5.90;96.60;;;;;;5066743;28;20052;-74
2022/12/07 07:47:54;;;;;;;19.58;9.20;;;6.00;96.50;;;;;;5074690;28;20027;-74
2022/12/07 07:50:20;;;;;;;15.90;9.02;;;6.00;96.30;;;;;;5070517;28;20805;-74
2022/12/07 07:52:47;;;;;;;17.67;8.70;;;6.00;96.20;;;;;;5064100;28;20480;-74
2022/12/07 07:55:13;;;;;;;13.95;7.30;;;6.00;96.20;;;;;;5068398;28;20074;-74
2022/12/07 07:57:40;;;;;;;13.32;7.07;;;6.00;96.20;;;;;;5073237;28;20024;-74
2022/12/07 08:00:12;;;;;;;13.68;7.68;;;6.00;96.10;;;;;;5078497;28;20036;-74
2022/12/07 08:02:38;;;;;;;13.98;7.80;;;6.00;96.10;;;;;;5070589;28;20454;-73
2022/12/07 08:05:04;;;;;;;13.27;6.75;;;6.10;96.20;;;;;;5067269;28;20040;-74
2022/12/07 08:07:30;;;;;;;11.27;6.35;;;5.90;95.90;;;;;;5073115;28;20154;-74
2022/12/07 08:09:56;;;;;;;11.35;6.15;;;5.80;95.80;;;;;;5069117;28;20032;-74
2022/12/07 08:12:22;;;;;;;9.90;5.00;;;5.80;96.20;;;;;;5066456;28;20763;-74
2022/12/07 08:14:48;;;;;;;8.75;4.82;;;5.80;96.00;;;;;;5069243;28;20114;-74
2022/12/07 08:17:14;;;;;;;8.18;4.13;;;5.80;95.80;;;;;;5072480;28;20036;-74
2022/12/07 08:19:40;;;;;;;6.38;3.70;;;5.80;95.80;;;;;;5072965;28;20016;-74
2022/12/07 08:22:05;;;;;;;8.05;4.03;;;5.80;95.70;;;;;;5070196;28;20035;-74
2022/12/07 08:24:34;;;;;;;5.45;2.75;;;5.80;95.50;;;;;;5068717;28;20088;-74
2022/12/07 08:27:00;;;;;;;3.70;2.60;;;5.70;95.30;;;;;;5069323;28;20897;-74
2022/12/07 08:29:25;;;;;;;4.25;2.55;;;5.70;95.30;;;;;;5074572;28;20151;-74
2022/12/07 08:31:51;;;;;;;4.22;2.60;;;5.70;95.00;;;;;;5066739;28;20064;-75
2022/12/07 08:34:17;;;;;;;6.95;2.95;;;5.70;94.80;;;;;;5066562;28;20171;-75
2022/12/07 08:36:43;;;;;;;4.50;2.85;;;5.70;94.70;;;;;;5073304;28;20020;-75
2022/12/07 08:39:09;;;;;;;4.45;2.40;;;5.80;94.50;;;;;;5070904;28;20701;-75
2022/12/07 08:41:35;;;;;;;9.07;2.80;;;5.80;94.60;;;;;;5071144;28;20031;-75
2022/12/07 08:44:01;;;;;;;4.95;2.80;;;5.80;94.40;;;;;;5072083;28;20035;-75
2022/12/07 08:46:36;;;;;;;3.03;2.10;;;5.80;94.30;;;;;;5076043;28;20059;-80
2022/12/07 08:49:13;;;;;;;4.10;2.22;;;5.80;94.40;;;;;;5070604;28;20131;-74
2022/12/07 08:51:41;;;;;;;2.72;2.33;;;5.90;94.40;;;;;;5068412;28;20516;-74
2022/12/07 08:54:16;;;;;;;4.18;2.63;;;6.00;94.40;;;;;;5067792;28;20040;-71
2022/12/07 08:56:43;;;;;;;4.53;2.47;;;6.10;94.20;;;;;;5068548;28;20024;-74
2022/12/07 08:59:46;;;;;;;5.03;2.80;;;6.20;94.10;;;;;;5067236;28;20024;-74
2022/12/07 09:02:13;;;;;;;6.50;2.95;;;6.60;93.40;;;;;;5072013;28;20024;-74
2022/12/07 09:04:39;;;;;;;6.28;2.72;;;6.80;93.20;;;;;;5069359;28;20028;-74
2022/12/07 09:07:05;;;;;;;8.57;3.50;;;7.30;92.60;;;;;;5066401;28;20525;-74
2022/12/07 09:09:32;;;;;;;6.90;3.05;;;7.80;91.00;;;;;;5064776;28;20083;-74
2022/12/07 09:11:58;;;;;;;5.57;2.83;;;8.10;90.20;;;;;;5066458;28;20033;-70
2022/12/07 09:14:23;;;;;;;3.92;2.55;;;8.00;89.20;;;;;;5054172;28;20044;-75
2022/12/07 09:16:50;;;;;;;4.57;3.28;;;7.90;90.00;;;;;;5068577;28;20025;-75
2022/12/07 09:19:15;;;;;;;6.57;2.80;;;8.20;90.20;;;;;;5067484;28;20136;-75
2022/12/07 09:21:41;;;;;;;2.95;2.20;;;8.90;87.80;;;;;;5066789;28;20109;-75
2022/12/07 09:24:08;;;;;;;4.20;2.00;;;9.10;85.80;;;;;;5067869;28;20051;-74
2022/12/07 09:26:35;;;;;;;4.93;2.33;;;8.90;85.00;;;;;;5070413;28;20037;-74
2022/12/07 09:29:02;;;;;;;3.25;2.20;;;8.60;85.30;;;;;;5068079;28;20028;-73
2022/12/07 09:31:28;;;;;;;4.78;2.22;;;8.00;86.20;;;;;;5069097;28;20039;-73
2022/12/07 09:33:58;;;;;;;6.10;2.25;;;7.80;88.10;;;;;;5066150;28;20090;-74
2022/12/07 09:36:25;;;;;;;4.85;2.00;;;7.60;89.30;;;;;;5068533;28;20033;-74
2022/12/07 09:38:51;;;;;;;4.10;2.85;;;7.50;90.20;;;;;;5065836;28;20021;-74
2022/12/07 09:41:18;;;;;;;3.10;2.30;;;7.30;90.20;;;;;;5072297;28;20519;-75
2022/12/07 09:43:45;;;;;;;3.35;2.17;;;7.20;90.30;;;;;;5070714;28;20060;-75
2022/12/07 09:46:17;;;;;;;3.30;2.50;;;7.00;90.80;;;;;;5067606;28;20143;-76
2022/12/07 09:48:44;;;;;;;3.50;2.45;;;6.90;91.00;;;;;;5077408;28;20032;-76
2022/12/07 09:51:22;;;;;;;3.13;2.08;;;6.90;91.20;;;;;;5075792;28;20036;-76
2022/12/07 09:53:48;;;;;;;3.88;2.67;;;6.80;91.30;;;;;;5073795;28;20039;-74
2022/12/07 09:56:16;;;;;;;4.72;3.28;;;6.70;91.10;;;;;;5063474;28;20520;-75
2022/12/07 09:58:43;;;;;;;3.95;2.25;;;6.70;91.50;;;;;;5066536;28;20054;-75
2022/12/07 10:01:08;;;;;;;6.82;3.00;;;6.60;91.60;;;;;;5065648;28;20036;-73
2022/12/07 10:03:39;;;;;;;5.53;3.25;;;6.50;91.20;;;;;;5066779;28;20035;-75
2022/12/07 10:06:06;;;;;;;4.25;2.80;;;6.40;91.90;;;;;;5068191;28;20040;-76
2022/12/07 10:08:32;;;;;;;4.10;2.60;;;6.50;92.30;;;;;;5074127;28;20127;-74
2022/12/07 10:11:03;;;;;;;5.93;2.97;;;6.50;92.00;;;;;;5064651;28;20073;-74
2022/12/07 10:14:09;;;;;;;4.07;2.92;;;6.50;92.50;;;;;;5069264;28;20064;-73
2022/12/07 10:16:41;;;;;;;4.55;2.42;;;6.60;92.10;;;;;;5066180;28;20074;-76
2022/12/07 10:19:22;;;;;;;4.22;2.35;;;6.70;92.00;;;;;;5067018;28;20480;-76
2022/12/07 10:22:10;;;;;;;7.22;2.83;;;6.70;91.80;;;;;;5067021;28;20445;-75
2022/12/07 10:24:39;;;;;;;8.85;4.13;;;6.70;91.90;;;;;;5063108;28;20032;-75
2022/12/07 10:27:16;;;;;;;6.30;3.28;;;6.70;91.80;;;;;;5071271;28;20054;-72
2022/12/07 10:29:51;;;;;;;9.68;3.55;;;6.70;91.60;;;;;;5062530;28;20020;-73
2022/12/07 10:32:16;;;;;;;6.03;2.47;;;6.80;91.50;;;;;;5075531;28;20036;-75
2022/12/07 10:34:43;;;;;;;5.47;3.13;;;7.00;91.60;;;;;;5068097;28;20040;-75
2022/12/07 10:37:09;;;;;;;5.90;3.45;;;7.40;91.50;;;;;;5064673;28;20140;-76
2022/12/07 10:39:47;;;;;;;6.03;2.67;;;7.90;90.70;;;;;;5073881;28;20026;-76
2022/12/07 10:42:25;;;;;;;5.18;2.38;;;8.10;89.90;;;;;;5071683;28;20051;-75
2022/12/07 10:45:09;;;;;;;4.47;2.35;;;8.00;88.10;;;;;;5064571;28;20055;-72
2022/12/07 10:48:16;;;;;;;3.13;2.05;;;8.00;89.10;;;;;;5066205;28;20039;-73
2022/12/07 10:50:58;;;;;;;6.32;2.42;;;8.00;89.40;;;;;;5039984;28;20037;-74
2022/12/07 10:53:30;;;;;;;5.35;3.10;;;7.80;89.60;;;;;;5058263;28;20120;-75
2022/12/07 10:56:25;;;;;;;6.78;2.65;;;7.70;89.80;;;;;;5065986;28;20032;-74
2022/12/07 10:59:48;;;;;;;6.38;2.70;;;7.60;90.10;;;;;;5069820;28;20047;-78
2022/12/07 11:02:54;;;;;;;4.45;2.30;;;7.40;90.60;;;;;;5022365;28;20083;-75
2022/12/07 11:05:25;;;;;;;9.02;2.53;;;7.30;90.30;;;;;;5027640;28;20033;-75
2022/12/07 11:08:13;;;;;;;4.78;2.95;;;7.20;90.80;;;;;;5057011;28;20040;-74
2022/12/07 11:11:04;;;;;;;6.55;2.53;;;7.00;91.10;;;;;;5064824;28;20740;-74
2022/12/07 11:13:48;;;;;;;3.05;2.10;;;7.00;91.60;;;;;;5064507;28;20662;-70
2022/12/07 11:16:51;;;;;;;5.95;2.50;;;6.90;91.60;;;;;;5070783;28;20032;-77
2022/12/07 11:19:29;;;;;;;4.03;2.17;;;6.90;91.90;;;;;;5068022;28;20028;-65
2022/12/07 11:22:05;;;;;;;3.58;2.40;;;6.90;92.00;;;;;;5070943;28;20029;-76
2022/12/07 11:25:13;;;;;;;4.03;2.30;;;7.00;91.90;;;;;;5068079;28;20403;-71
2022/12/07 11:27:55;;;;;;;11.88;2.58;;;7.00;91.60;;;;;;5067897;28;20037;-78
2022/12/07 11:30:50;;;;;;;4.10;2.10;;;6.90;91.70;;;;;;5071708;28;20032;-74
2022/12/07 11:33:34;;;;;;;3.85;1.70;;;7.00;92.00;;;;;;5060745;28;20051;-77
2022/12/07 11:36:09;;;;;;;6.22;2.00;;;7.00;92.00;;;;;;5066874;28;20037;-74
2022/12/07 11:38:47;;;;;;;3.70;2.50;;;7.10;91.90;;;;;;5069756;28;20101;-74
2022/12/07 11:41:20;;;;;;;4.35;1.95;;;7.10;91.80;;;;;;5070626;28;20488;-75
2022/12/07 11:43:52;;;;;;;4.22;1.85;;;7.20;91.60;;;;;;5065123;28;20040;-75
2022/12/07 11:46:19;;;;;;;6.22;1.90;;;7.20;91.70;;;;;;5076103;28;20031;-75
2022/12/07 11:49:02;;;;;;;5.60;1.75;;;7.30;91.50;;;;;;5076466;28;20028;-78
2022/12/07 11:51:33;;;;;;;3.22;1.52;;;7.30;91.50;;;;;;5075825;28;20039;-75
2022/12/07 11:54:03;;;;;;;3.53;1.58;;;7.40;91.40;;;;;;5073233;28;20127;-73
2022/12/07 11:56:30;;;;;;;2.75;1.90;;;7.40;91.10;;;;;;5063024;28;20035;-77
2022/12/07 11:59:04;;;;;;;6.00;2.10;;;7.50;91.30;;;;;;5067016;28;20538;-76
2022/12/07 12:01:45;;;;;;;3.05;2.03;;;7.60;91.40;;;;;;5073782;28;20029;-74
2022/12/07 12:04:11;;;;;;;5.75;1.75;;;7.70;91.40;;;;;;5069157;28;20031;-75
2022/12/07 12:06:42;;;;;;;4.22;2.17;;;7.70;91.20;;;;;;5072467;28;20038;-75
2022/12/07 12:09:27;;;;;;;2.47;1.67;;;7.70;90.60;;;;;;5074649;28;20035;-82
2022/12/07 12:12:29;;;;;;;4.10;2.03;;;7.70;90.60;;;;;;5074165;28;20028;-77
2022/12/07 12:15:15;;;;;;;5.15;1.80;;;7.80;90.60;;;;;;5053810;28;20033;-76
2022/12/07 12:18:22;;;;;;;2.90;1.50;;;7.70;90.30;;;;;;5077388;28;20093;-76
2022/12/07 12:21:06;;;;;;;2.47;1.63;;;7.70;90.50;;;;;;5075033;28;20028;-76
2022/12/07 12:23:44;;;;;;;4.63;1.42;;;7.70;90.10;;;;;;5072942;28;20277;-75
2022/12/07 12:26:21;;;;;;;4.72;1.90;;;7.60;90.30;;;;;;5068336;28;20036;-75
2022/12/07 12:28:54;;;;;;;5.35;1.30;;;7.70;90.60;;;;;;5073199;28;20051;-79
2022/12/07 12:31:20;;;;;;;7.95;3.38;;;7.60;90.20;;;;;;5062815;28;20135;-80
2022/12/07 12:33:55;;;;;;;4.95;1.80;;;7.70;90.30;;;;;;5076296;28;20020;-79
2022/12/07 12:36:39;;;;;;;1.92;1.55;;;7.60;90.40;;;;;;5071927;28;20094;-78
2022/12/07 12:39:08;;;;;;;1.92;1.30;;;7.60;90.50;;;;;;5077934;28;20090;-80
2022/12/07 12:44:15;;;;;;;2.90;1.50;;;7.60;90.70;;;;;;5078653;28;20589;-80
2022/12/07 12:47:24;;;;;;;6.05;1.40;;;7.70;91.10;;;;;;5071575;28;20028;-79
2022/12/07 12:50:19;;;;;;;5.00;1.48;;;7.70;90.90;;;;;;5073046;28;20035;-78
2022/12/07 12:53:01;;;;;;;2.78;1.20;;;7.70;90.90;;;;;;5068894;28;20032;-77
2022/12/07 12:56:02;;;;;;;3.00;1.60;;;7.70;90.50;;;;;;5062294;28;20043;-77
2022/12/07 12:58:34;;;;;;;4.35;1.63;;;7.70;90.60;;;;;;5077193;28;20074;-76
2022/12/07 13:01:33;;;;;;;6.72;1.73;;;7.60;90.50;;;;;;5073086;28;20039;-77
2022/12/07 13:03:59;;;;;;;2.65;1.70;;;7.40;90.60;;;;;;5073838;28;20515;-77
2022/12/07 13:06:26;;;;;;;3.30;1.63;;;7.30;90.90;;;;;;5071346;28;20387;-76
2022/12/07 13:08:59;;;;;;;3.28;1.65;;;7.20;91.30;;;;;;5070183;28;20049;-77
2022/12/07 13:11:41;;;;;;;4.65;1.63;;;7.30;91.40;;;;;;5065953;28;20040;-77
2022/12/07 13:14:40;;;;;;;5.63;2.47;;;7.30;91.30;;;;;;5066708;28;20094;-77
2022/12/07 13:17:09;;;;;;;4.25;1.48;;;7.30;91.40;;;;;;5068527;28;20028;-77
2022/12/07 13:19:41;;;;;;;6.47;1.70;;;7.30;91.40;;;;;;5070552;28;20032;-77
2022/12/07 13:22:37;;;;;;;4.28;1.60;;;7.30;91.20;;;;;;5068273;28;20067;-77